This is the latest recevied weather packets stored in our database for station/object E7HQ-1. If no packets are shown the sender has not sent any weather packets the latest 10 day(s).
| Time | Temp. | Humidity | Pressure | Rain* | Wind** | Luminosity | Snow |
|---|---|---|---|---|---|---|---|
| 1777356711 | 17.22° C | 38% | 1028.3 hPa | - | - | - | - |
| 1777355811 | 16.11° C | 40% | 1028.4 hPa | - | - | - | - |
| 1777354010 | 13.89° C | 46% | 1028.5 hPa | - | - | - | - |
| 1777353110 | 13.33° C | 45% | 1028.4 hPa | - | - | - | - |
| 1777352210 | 12.78° C | 45% | 1028.3 hPa | - | - | - | - |
| 1777351310 | 12.78° C | 45% | 1028.3 hPa | - | - | - | - |
| 1777350409 | 12.78° C | 45% | 1028.2 hPa | - | - | - | - |
| 1777349509 | 12.22° C | 47% | 1028.1 hPa | - | - | - | - |
| 1777348609 | 12.22° C | 46% | 1028.1 hPa | - | - | - | - |
| 1777347709 | 12.22° C | 46% | 1028.1 hPa | - | - | - | - |
| 1777346809 | 12.22° C | 45% | 1028 hPa | - | - | - | - |
| 1777345908 | 12.78° C | 45% | 1027.9 hPa | - | - | - | - |
| 1777345008 | 12.78° C | 44% | 1027.9 hPa | - | - | - | - |
| 1777344108 | 12.78° C | 44% | 1028.1 hPa | - | - | - | - |
| 1777343208 | 12.78° C | 45% | 1028.2 hPa | - | - | - | - |
| 1777342307 | 12.78° C | 45% | 1028.2 hPa | - | - | - | - |
| 1777341407 | 12.78° C | 44% | 1028.3 hPa | - | - | - | - |
| 1777340507 | 12.78° C | 45% | 1028.3 hPa | - | - | - | - |
| 1777338707 | 13.33° C | 43% | 1028.4 hPa | - | - | - | - |
| 1777337806 | 13.89° C | 42% | 1028.3 hPa | - | - | - | - |
* Rain since midnight (hover to see other rain measurements)
** Current wind speed in m/s (hover to see current wind gust speed)